sensor_id;sensor_type;location;lat;lon;timestamp;P1;durP1;ratioP1;P2;durP2;ratioP2
21810;SDS011;11067;48.788;9.208;2022-09-12T00:01:24;9.60;;;7.53;;
21810;SDS011;11067;48.788;9.208;2022-09-12T00:03:53;10.32;;;7.85;;
21810;SDS011;11067;48.788;9.208;2022-09-12T00:06:22;9.60;;;7.47;;
21810;SDS011;11067;48.788;9.208;2022-09-12T00:08:53;10.88;;;7.40;;
21810;SDS011;11067;48.788;9.208;2022-09-12T00:11:20;10.73;;;7.57;;
21810;SDS011;11067;48.788;9.208;2022-09-12T00:13:46;10.13;;;7.45;;
21810;SDS011;11067;48.788;9.208;2022-09-12T00:16:13;10.57;;;7.97;;
21810;SDS011;11067;48.788;9.208;2022-09-12T00:18:40;11.30;;;8.47;;
21810;SDS011;11067;48.788;9.208;2022-09-12T00:21:06;13.20;;;8.73;;
21810;SDS011;11067;48.788;9.208;2022-09-12T00:23:32;10.93;;;7.87;;
21810;SDS011;11067;48.788;9.208;2022-09-12T00:25:57;10.75;;;7.95;;
21810;SDS011;11067;48.788;9.208;2022-09-12T00:28:23;9.93;;;7.45;;
21810;SDS011;11067;48.788;9.208;2022-09-12T00:30:49;12.93;;;8.03;;
21810;SDS011;11067;48.788;9.208;2022-09-12T00:33:15;9.93;;;8.10;;
21810;SDS011;11067;48.788;9.208;2022-09-12T00:35:42;11.80;;;8.35;;
21810;SDS011;11067;48.788;9.208;2022-09-12T00:38:09;13.93;;;8.45;;
21810;SDS011;11067;48.788;9.208;2022-09-12T00:40:35;12.93;;;8.87;;
21810;SDS011;11067;48.788;9.208;2022-09-12T00:43:00;13.43;;;8.93;;
21810;SDS011;11067;48.788;9.208;2022-09-12T00:45:27;13.05;;;9.23;;
21810;SDS011;11067;48.788;9.208;2022-09-12T00:47:54;15.07;;;8.57;;
21810;SDS011;11067;48.788;9.208;2022-09-12T00:50:24;12.57;;;8.33;;
21810;SDS011;11067;48.788;9.208;2022-09-12T00:53:02;14.10;;;8.65;;
21810;SDS011;11067;48.788;9.208;2022-09-12T00:55:31;13.25;;;8.35;;
21810;SDS011;11067;48.788;9.208;2022-09-12T00:58:03;12.00;;;8.23;;
21810;SDS011;11067;48.788;9.208;2022-09-12T01:00:34;12.23;;;8.73;;
21810;SDS011;11067;48.788;9.208;2022-09-12T01:03:04;11.70;;;8.68;;
21810;SDS011;11067;48.788;9.208;2022-09-12T01:05:34;11.48;;;7.93;;
21810;SDS011;11067;48.788;9.208;2022-09-12T01:08:03;10.98;;;7.88;;
21810;SDS011;11067;48.788;9.208;2022-09-12T01:10:29;10.87;;;8.20;;
21810;SDS011;11067;48.788;9.208;2022-09-12T01:12:57;12.25;;;8.52;;
21810;SDS011;11067;48.788;9.208;2022-09-12T01:15:23;14.20;;;8.80;;
21810;SDS011;11067;48.788;9.208;2022-09-12T01:18:03;12.73;;;9.30;;
21810;SDS011;11067;48.788;9.208;2022-09-12T01:29:08;12.25;;;8.93;;
21810;SDS011;11067;48.788;9.208;2022-09-12T01:32:40;15.48;;;9.80;;
21810;SDS011;11067;48.788;9.208;2022-09-12T01:35:01;17.05;;;9.82;;
21810;SDS011;11067;48.788;9.208;2022-09-12T01:37:46;14.10;;;9.43;;
21810;SDS011;11067;48.788;9.208;2022-09-12T01:40:31;12.48;;;9.35;;
21810;SDS011;11067;48.788;9.208;2022-09-12T01:43:19;12.40;;;8.80;;
21810;SDS011;11067;48.788;9.208;2022-09-12T01:48:27;14.38;;;9.45;;
21810;SDS011;11067;48.788;9.208;2022-09-12T01:51:05;13.23;;;9.43;;
21810;SDS011;11067;48.788;9.208;2022-09-12T01:53:33;13.43;;;9.07;;
21810;SDS011;11067;48.788;9.208;2022-09-12T01:56:07;13.10;;;8.95;;
21810;SDS011;11067;48.788;9.208;2022-09-12T01:58:39;13.20;;;9.10;;
21810;SDS011;11067;48.788;9.208;2022-09-12T02:01:13;13.10;;;8.75;;
21810;SDS011;11067;48.788;9.208;2022-09-12T02:03:45;12.30;;;8.63;;
21810;SDS011;11067;48.788;9.208;2022-09-12T02:06:25;12.70;;;8.85;;
21810;SDS011;11067;48.788;9.208;2022-09-12T02:08:59;12.13;;;8.40;;
21810;SDS011;11067;48.788;9.208;2022-09-12T02:11:35;12.50;;;8.37;;
21810;SDS011;11067;48.788;9.208;2022-09-12T02:14:07;12.60;;;9.07;;
21810;SDS011;11067;48.788;9.208;2022-09-12T02:16:38;14.80;;;8.55;;
21810;SDS011;11067;48.788;9.208;2022-09-12T02:19:15;12.77;;;8.27;;
21810;SDS011;11067;48.788;9.208;2022-09-12T02:21:45;12.93;;;8.73;;
21810;SDS011;11067;48.788;9.208;2022-09-12T02:24:23;12.47;;;8.70;;
21810;SDS011;11067;48.788;9.208;2022-09-12T02:26:55;11.93;;;8.67;;
21810;SDS011;11067;48.788;9.208;2022-09-12T02:29:29;12.52;;;8.77;;
21810;SDS011;11067;48.788;9.208;2022-09-12T02:32:05;15.57;;;9.18;;
21810;SDS011;11067;48.788;9.208;2022-09-12T02:34:54;11.93;;;8.85;;
21810;SDS011;11067;48.788;9.208;2022-09-12T02:39:56;13.48;;;9.05;;
21810;SDS011;11067;48.788;9.208;2022-09-12T02:42:22;11.98;;;8.85;;
21810;SDS011;11067;48.788;9.208;2022-09-12T02:44:49;11.60;;;8.50;;
21810;SDS011;11067;48.788;9.208;2022-09-12T02:47:26;12.03;;;8.77;;
21810;SDS011;11067;48.788;9.208;2022-09-12T02:50:01;11.40;;;8.77;;
21810;SDS011;11067;48.788;9.208;2022-09-12T02:52:29;11.47;;;9.10;;
21810;SDS011;11067;48.788;9.208;2022-09-12T02:54:56;12.90;;;9.02;;
21810;SDS011;11067;48.788;9.208;2022-09-12T02:57:23;12.98;;;9.38;;
21810;SDS011;11067;48.788;9.208;2022-09-12T02:59:49;11.97;;;8.70;;
21810;SDS011;11067;48.788;9.208;2022-09-12T03:05:26;12.03;;;8.70;;
21810;SDS011;11067;48.788;9.208;2022-09-12T03:08:14;12.40;;;8.38;;
21810;SDS011;11067;48.788;9.208;2022-09-12T03:16:26;12.38;;;9.18;;
21810;SDS011;11067;48.788;9.208;2022-09-12T03:27:35;12.70;;;9.70;;
21810;SDS011;11067;48.788;9.208;2022-09-12T03:30:05;14.15;;;9.27;;
21810;SDS011;11067;48.788;9.208;2022-09-12T03:32:39;14.93;;;9.65;;
21810;SDS011;11067;48.788;9.208;2022-09-12T03:35:09;12.60;;;9.55;;
21810;SDS011;11067;48.788;9.208;2022-09-12T03:37:36;13.23;;;9.57;;
21810;SDS011;11067;48.788;9.208;2022-09-12T03:40:02;13.07;;;9.60;;
21810;SDS011;11067;48.788;9.208;2022-09-12T03:42:29;13.07;;;9.45;;
21810;SDS011;11067;48.788;9.208;2022-09-12T03:44:55;13.20;;;9.43;;
21810;SDS011;11067;48.788;9.208;2022-09-12T03:47:20;14.20;;;10.10;;
21810;SDS011;11067;48.788;9.208;2022-09-12T03:49:45;12.97;;;9.77;;
21810;SDS011;11067;48.788;9.208;2022-09-12T03:52:11;14.73;;;9.88;;
21810;SDS011;11067;48.788;9.208;2022-09-12T03:54:36;13.70;;;9.77;;
21810;SDS011;11067;48.788;9.208;2022-09-12T03:57:03;15.90;;;9.75;;
21810;SDS011;11067;48.788;9.208;2022-09-12T03:59:29;12.88;;;9.30;;
21810;SDS011;11067;48.788;9.208;2022-09-12T04:01:54;13.63;;;10.23;;
21810;SDS011;11067;48.788;9.208;2022-09-12T04:04:20;12.77;;;9.77;;
21810;SDS011;11067;48.788;9.208;2022-09-12T04:06:45;17.63;;;10.30;;
21810;SDS011;11067;48.788;9.208;2022-09-12T04:09:11;14.70;;;10.23;;
21810;SDS011;11067;48.788;9.208;2022-09-12T04:11:36;14.67;;;10.57;;
21810;SDS011;11067;48.788;9.208;2022-09-12T04:14:02;19.17;;;10.30;;
21810;SDS011;11067;48.788;9.208;2022-09-12T04:16:27;14.68;;;10.20;;
21810;SDS011;11067;48.788;9.208;2022-09-12T04:18:53;16.57;;;11.07;;
21810;SDS011;11067;48.788;9.208;2022-09-12T04:21:19;16.23;;;10.70;;
21810;SDS011;11067;48.788;9.208;2022-09-12T04:23:47;15.80;;;10.45;;
21810;SDS011;11067;48.788;9.208;2022-09-12T04:26:14;14.93;;;10.23;;
21810;SDS011;11067;48.788;9.208;2022-09-12T04:28:42;17.10;;;10.35;;
21810;SDS011;11067;48.788;9.208;2022-09-12T04:31:12;15.35;;;10.52;;
21810;SDS011;11067;48.788;9.208;2022-09-12T04:33:46;16.98;;;11.25;;
21810;SDS011;11067;48.788;9.208;2022-09-12T04:36:16;19.52;;;11.75;;
21810;SDS011;11067;48.788;9.208;2022-09-12T04:38:43;16.05;;;11.57;;
21810;SDS011;11067;48.788;9.208;2022-09-12T04:43:36;19.03;;;11.87;;
21810;SDS011;11067;48.788;9.208;2022-09-12T04:46:05;19.30;;;11.83;;
21810;SDS011;11067;48.788;9.208;2022-09-12T04:48:31;18.15;;;11.65;;
21810;SDS011;11067;48.788;9.208;2022-09-12T04:51:05;15.73;;;11.18;;
21810;SDS011;11067;48.788;9.208;2022-09-12T04:53:34;15.57;;;11.10;;
21810;SDS011;11067;48.788;9.208;2022-09-12T04:56:02;16.30;;;11.27;;
21810;SDS011;11067;48.788;9.208;2022-09-12T04:58:29;18.80;;;11.57;;
21810;SDS011;11067;48.788;9.208;2022-09-12T05:01:02;15.70;;;11.13;;
21810;SDS011;11067;48.788;9.208;2022-09-12T05:03:32;16.35;;;11.57;;
21810;SDS011;11067;48.788;9.208;2022-09-12T05:05:58;18.77;;;11.20;;
21810;SDS011;11067;48.788;9.208;2022-09-12T05:08:25;16.10;;;12.00;;
21810;SDS011;11067;48.788;9.208;2022-09-12T05:10:51;19.33;;;11.25;;
21810;SDS011;11067;48.788;9.208;2022-09-12T05:13:17;18.30;;;12.33;;
21810;SDS011;11067;48.788;9.208;2022-09-12T05:15:42;16.17;;;11.23;;
21810;SDS011;11067;48.788;9.208;2022-09-12T05:18:08;16.37;;;11.40;;
21810;SDS011;11067;48.788;9.208;2022-09-12T05:20:34;18.17;;;12.03;;
21810;SDS011;11067;48.788;9.208;2022-09-12T05:22:59;19.33;;;11.48;;
21810;SDS011;11067;48.788;9.208;2022-09-12T05:25:25;16.70;;;10.90;;
21810;SDS011;11067;48.788;9.208;2022-09-12T05:27:51;18.52;;;10.82;;
21810;SDS011;11067;48.788;9.208;2022-09-12T05:30:17;15.10;;;10.68;;
21810;SDS011;11067;48.788;9.208;2022-09-12T05:32:42;15.48;;;9.88;;
21810;SDS011;11067;48.788;9.208;2022-09-12T05:35:08;14.27;;;9.77;;
21810;SDS011;11067;48.788;9.208;2022-09-12T05:37:33;14.00;;;10.00;;
21810;SDS011;11067;48.788;9.208;2022-09-12T05:39:59;15.27;;;9.27;;
21810;SDS011;11067;48.788;9.208;2022-09-12T05:42:28;12.80;;;9.17;;
21810;SDS011;11067;48.788;9.208;2022-09-12T05:44:54;12.27;;;9.37;;
21810;SDS011;11067;48.788;9.208;2022-09-12T05:47:20;15.20;;;9.90;;
21810;SDS011;11067;48.788;9.208;2022-09-12T05:49:45;13.30;;;9.50;;
21810;SDS011;11067;48.788;9.208;2022-09-12T05:52:12;13.93;;;9.90;;
21810;SDS011;11067;48.788;9.208;2022-09-12T05:54:37;13.30;;;9.02;;
21810;SDS011;11067;48.788;9.208;2022-09-12T05:57:03;14.87;;;9.20;;
21810;SDS011;11067;48.788;9.208;2022-09-12T05:59:28;14.10;;;9.40;;
21810;SDS011;11067;48.788;9.208;2022-09-12T06:01:54;12.97;;;9.53;;
21810;SDS011;11067;48.788;9.208;2022-09-12T06:04:20;13.80;;;9.48;;
21810;SDS011;11067;48.788;9.208;2022-09-12T06:06:45;14.90;;;9.98;;
21810;SDS011;11067;48.788;9.208;2022-09-12T06:09:13;15.52;;;10.25;;
21810;SDS011;11067;48.788;9.208;2022-09-12T06:11:39;17.75;;;10.35;;
21810;SDS011;11067;48.788;9.208;2022-09-12T06:14:06;15.60;;;10.57;;
21810;SDS011;11067;48.788;9.208;2022-09-12T06:16:33;16.58;;;10.63;;
21810;SDS011;11067;48.788;9.208;2022-09-12T06:19:00;15.73;;;10.02;;
21810;SDS011;11067;48.788;9.208;2022-09-12T06:21:37;16.75;;;11.20;;
21810;SDS011;11067;48.788;9.208;2022-09-12T06:24:03;19.48;;;11.05;;
21810;SDS011;11067;48.788;9.208;2022-09-12T06:26:29;16.10;;;10.02;;
21810;SDS011;11067;48.788;9.208;2022-09-12T06:28:56;11.73;;;8.90;;
21810;SDS011;11067;48.788;9.208;2022-09-12T06:31:27;16.15;;;9.00;;
21810;SDS011;11067;48.788;9.208;2022-09-12T06:33:54;15.50;;;9.07;;
21810;SDS011;11067;48.788;9.208;2022-09-12T06:36:22;15.52;;;9.02;;
21810;SDS011;11067;48.788;9.208;2022-09-12T06:38:53;12.73;;;9.20;;
21810;SDS011;11067;48.788;9.208;2022-09-12T06:41:20;18.05;;;9.90;;
21810;SDS011;11067;48.788;9.208;2022-09-12T06:43:45;13.88;;;9.60;;
21810;SDS011;11067;48.788;9.208;2022-09-12T06:46:11;15.55;;;10.05;;
21810;SDS011;11067;48.788;9.208;2022-09-12T06:48:37;15.20;;;9.13;;
21810;SDS011;11067;48.788;9.208;2022-09-12T06:51:06;12.07;;;8.53;;
21810;SDS011;11067;48.788;9.208;2022-09-12T06:53:35;18.58;;;10.15;;
21810;SDS011;11067;48.788;9.208;2022-09-12T06:56:02;15.43;;;9.77;;
21810;SDS011;11067;48.788;9.208;2022-09-12T06:58:30;13.45;;;8.52;;
21810;SDS011;11067;48.788;9.208;2022-09-12T07:01:03;12.27;;;8.55;;
21810;SDS011;11067;48.788;9.208;2022-09-12T07:03:29;14.30;;;9.65;;
21810;SDS011;11067;48.788;9.208;2022-09-12T07:05:57;13.82;;;9.70;;
21810;SDS011;11067;48.788;9.208;2022-09-12T07:08:27;13.80;;;9.48;;
21810;SDS011;11067;48.788;9.208;2022-09-12T07:10:55;17.35;;;10.18;;
21810;SDS011;11067;48.788;9.208;2022-09-12T07:13:22;15.05;;;9.60;;
21810;SDS011;11067;48.788;9.208;2022-09-12T07:15:49;15.13;;;9.90;;
21810;SDS011;11067;48.788;9.208;2022-09-12T07:18:15;15.45;;;9.82;;
21810;SDS011;11067;48.788;9.208;2022-09-12T07:20:41;13.93;;;9.53;;
21810;SDS011;11067;48.788;9.208;2022-09-12T07:23:07;14.37;;;9.53;;
21810;SDS011;11067;48.788;9.208;2022-09-12T07:25:33;19.40;;;9.47;;
21810;SDS011;11067;48.788;9.208;2022-09-12T07:27:58;15.48;;;9.52;;
21810;SDS011;11067;48.788;9.208;2022-09-12T07:30:24;15.10;;;9.95;;
21810;SDS011;11067;48.788;9.208;2022-09-12T07:32:52;14.40;;;9.47;;
21810;SDS011;11067;48.788;9.208;2022-09-12T07:35:18;14.15;;;9.23;;
21810;SDS011;11067;48.788;9.208;2022-09-12T07:37:44;15.10;;;9.63;;
21810;SDS011;11067;48.788;9.208;2022-09-12T07:40:10;14.27;;;9.20;;
21810;SDS011;11067;48.788;9.208;2022-09-12T07:42:35;16.77;;;9.83;;
21810;SDS011;11067;48.788;9.208;2022-09-12T07:45:01;16.05;;;10.25;;
21810;SDS011;11067;48.788;9.208;2022-09-12T07:47:27;12.47;;;8.70;;
21810;SDS011;11067;48.788;9.208;2022-09-12T07:49:52;15.73;;;9.13;;
21810;SDS011;11067;48.788;9.208;2022-09-12T07:52:18;13.00;;;9.27;;
21810;SDS011;11067;48.788;9.208;2022-09-12T07:54:43;14.77;;;8.13;;
21810;SDS011;11067;48.788;9.208;2022-09-12T07:57:09;14.77;;;8.50;;
21810;SDS011;11067;48.788;9.208;2022-09-12T07:59:34;12.82;;;8.60;;
21810;SDS011;11067;48.788;9.208;2022-09-12T08:02:08;16.02;;;8.65;;
21810;SDS011;11067;48.788;9.208;2022-09-12T08:04:35;13.13;;;8.25;;
21810;SDS011;11067;48.788;9.208;2022-09-12T08:07:01;11.30;;;7.83;;
21810;SDS011;11067;48.788;9.208;2022-09-12T08:09:26;14.73;;;7.93;;
21810;SDS011;11067;48.788;9.208;2022-09-12T08:11:52;14.03;;;8.13;;
21810;SDS011;11067;48.788;9.208;2022-09-12T08:14:17;12.37;;;7.50;;
21810;SDS011;11067;48.788;9.208;2022-09-12T08:16:43;12.37;;;7.43;;
21810;SDS011;11067;48.788;9.208;2022-09-12T08:19:08;11.30;;;7.30;;
21810;SDS011;11067;48.788;9.208;2022-09-12T08:21:34;11.88;;;7.30;;
21810;SDS011;11067;48.788;9.208;2022-09-12T08:24:03;10.57;;;6.93;;
21810;SDS011;11067;48.788;9.208;2022-09-12T08:26:31;10.27;;;7.00;;
21810;SDS011;11067;48.788;9.208;2022-09-12T08:28:57;11.55;;;7.00;;
21810;SDS011;11067;48.788;9.208;2022-09-12T08:31:24;9.55;;;6.93;;
21810;SDS011;11067;48.788;9.208;2022-09-12T08:33:51;9.57;;;6.72;;
21810;SDS011;11067;48.788;9.208;2022-09-12T08:36:21;11.82;;;6.70;;
21810;SDS011;11067;48.788;9.208;2022-09-12T08:38:50;8.27;;;6.18;;
21810;SDS011;11067;48.788;9.208;2022-09-12T08:46:59;7.93;;;5.93;;
21810;SDS011;11067;48.788;9.208;2022-09-12T08:49:40;9.97;;;6.10;;
21810;SDS011;11067;48.788;9.208;2022-09-12T08:52:21;9.47;;;5.70;;
21810;SDS011;11067;48.788;9.208;2022-09-12T08:54:52;7.97;;;5.90;;
21810;SDS011;11067;48.788;9.208;2022-09-12T08:57:20;7.85;;;5.22;;
21810;SDS011;11067;48.788;9.208;2022-09-12T08:59:47;8.13;;;5.68;;
21810;SDS011;11067;48.788;9.208;2022-09-12T09:05:04;9.23;;;5.05;;
21810;SDS011;11067;48.788;9.208;2022-09-12T09:16:05;7.10;;;4.63;;
21810;SDS011;11067;48.788;9.208;2022-09-12T09:18:48;7.75;;;4.13;;
21810;SDS011;11067;48.788;9.208;2022-09-12T09:21:28;6.07;;;4.20;;
21810;SDS011;11067;48.788;9.208;2022-09-12T09:24:05;6.10;;;3.78;;
21810;SDS011;11067;48.788;9.208;2022-09-12T09:29:40;12.48;;;4.80;;
21810;SDS011;11067;48.788;9.208;2022-09-12T09:32:12;4.63;;;3.67;;
21810;SDS011;11067;48.788;9.208;2022-09-12T09:34:42;4.60;;;3.35;;
21810;SDS011;11067;48.788;9.208;2022-09-12T09:37:12;3.22;;;2.92;;
21810;SDS011;11067;48.788;9.208;2022-09-12T09:39:57;4.00;;;2.70;;
21810;SDS011;11067;48.788;9.208;2022-09-12T09:45:30;3.08;;;2.50;;
21810;SDS011;11067;48.788;9.208;2022-09-12T09:47:56;3.35;;;2.40;;
21810;SDS011;11067;48.788;9.208;2022-09-12T09:50:27;3.03;;;2.50;;
21810;SDS011;11067;48.788;9.208;2022-09-12T09:52:53;2.67;;;2.40;;
21810;SDS011;11067;48.788;9.208;2022-09-12T09:55:23;5.53;;;2.83;;
21810;SDS011;11067;48.788;9.208;2022-09-12T09:57:52;3.85;;;2.70;;
21810;SDS011;11067;48.788;9.208;2022-09-12T10:00:21;3.87;;;2.20;;
21810;SDS011;11067;48.788;9.208;2022-09-12T10:05:44;3.55;;;2.50;;
21810;SDS011;11067;48.788;9.208;2022-09-12T10:08:26;2.38;;;2.17;;
21810;SDS011;11067;48.788;9.208;2022-09-12T10:10:58;2.40;;;2.20;;
21810;SDS011;11067;48.788;9.208;2022-09-12T10:16:23;2.30;;;2.10;;
21810;SDS011;11067;48.788;9.208;2022-09-12T10:18:51;2.47;;;2.28;;
21810;SDS011;11067;48.788;9.208;2022-09-12T10:21:22;2.30;;;1.92;;
21810;SDS011;11067;48.788;9.208;2022-09-12T10:24:25;11.70;;;2.50;;
21810;SDS011;11067;48.788;9.208;2022-09-12T10:26:55;3.00;;;2.17;;
21810;SDS011;11067;48.788;9.208;2022-09-12T10:29:32;3.40;;;2.20;;
21810;SDS011;11067;48.788;9.208;2022-09-12T10:32:04;3.38;;;2.22;;
21810;SDS011;11067;48.788;9.208;2022-09-12T10:34:34;3.27;;;2.10;;
21810;SDS011;11067;48.788;9.208;2022-09-12T10:37:06;5.22;;;1.88;;
21810;SDS011;11067;48.788;9.208;2022-09-12T10:39:35;3.65;;;2.03;;
21810;SDS011;11067;48.788;9.208;2022-09-12T10:42:02;2.00;;;1.90;;
21810;SDS011;11067;48.788;9.208;2022-09-12T10:44:30;3.67;;;2.20;;
21810;SDS011;11067;48.788;9.208;2022-09-12T10:46:58;2.30;;;2.00;;
21810;SDS011;11067;48.788;9.208;2022-09-12T10:51:51;2.40;;;2.00;;
21810;SDS011;11067;48.788;9.208;2022-09-12T10:54:18;2.92;;;2.20;;
21810;SDS011;11067;48.788;9.208;2022-09-12T11:04:55;2.42;;;2.22;;
21810;SDS011;11067;48.788;9.208;2022-09-12T11:07:53;2.73;;;2.10;;
21810;SDS011;11067;48.788;9.208;2022-09-12T11:24:02;1.65;;;1.48;;
21810;SDS011;11067;48.788;9.208;2022-09-12T11:29:10;1.50;;;1.40;;
21810;SDS011;11067;48.788;9.208;2022-09-12T11:34:08;2.10;;;1.50;;
21810;SDS011;11067;48.788;9.208;2022-09-12T11:36:56;4.03;;;1.80;;
21810;SDS011;11067;48.788;9.208;2022-09-12T11:39:37;3.58;;;1.50;;
21810;SDS011;11067;48.788;9.208;2022-09-12T11:42:04;1.80;;;1.47;;
21810;SDS011;11067;48.788;9.208;2022-09-12T11:44:38;1.60;;;1.50;;
21810;SDS011;11067;48.788;9.208;2022-09-12T11:47:08;2.70;;;1.50;;
21810;SDS011;11067;48.788;9.208;2022-09-12T11:55:23;2.03;;;1.60;;
21810;SDS011;11067;48.788;9.208;2022-09-12T11:57:49;1.70;;;1.48;;
21810;SDS011;11067;48.788;9.208;2022-09-12T12:00:19;1.60;;;1.40;;
21810;SDS011;11067;48.788;9.208;2022-09-12T12:03:06;2.28;;;1.73;;
21810;SDS011;11067;48.788;9.208;2022-09-12T12:05:59;1.70;;;1.52;;
21810;SDS011;11067;48.788;9.208;2022-09-12T12:08:43;4.65;;;1.80;;
21810;SDS011;11067;48.788;9.208;2022-09-12T12:11:11;2.90;;;1.80;;
21810;SDS011;11067;48.788;9.208;2022-09-12T12:13:51;1.77;;;1.67;;
21810;SDS011;11067;48.788;9.208;2022-09-12T12:16:32;1.70;;;1.60;;
21810;SDS011;11067;48.788;9.208;2022-09-12T12:19:25;2.50;;;1.40;;
21810;SDS011;11067;48.788;9.208;2022-09-12T12:22:07;1.67;;;1.40;;
21810;SDS011;11067;48.788;9.208;2022-09-12T12:24:52;2.05;;;1.67;;
21810;SDS011;11067;48.788;9.208;2022-09-12T12:28:02;2.20;;;1.60;;
21810;SDS011;11067;48.788;9.208;2022-09-12T12:33:03;1.42;;;0.90;;
21810;SDS011;11067;48.788;9.208;2022-09-12T12:35:43;1.50;;;1.00;;
21810;SDS011;11067;48.788;9.208;2022-09-12T12:38:30;1.65;;;1.10;;
21810;SDS011;11067;48.788;9.208;2022-09-12T12:43:48;1.10;;;1.00;;
21810;SDS011;11067;48.788;9.208;2022-09-12T12:46:16;1.48;;;1.08;;
21810;SDS011;11067;48.788;9.208;2022-09-12T12:51:35;1.80;;;1.23;;
21810;SDS011;11067;48.788;9.208;2022-09-12T12:57:14;1.80;;;1.40;;
21810;SDS011;11067;48.788;9.208;2022-09-12T12:59:54;2.60;;;1.53;;
21810;SDS011;11067;48.788;9.208;2022-09-12T13:02:29;1.50;;;1.23;;
21810;SDS011;11067;48.788;9.208;2022-09-12T13:05:00;1.60;;;1.20;;
21810;SDS011;11067;48.788;9.208;2022-09-12T13:07:29;1.00;;;0.90;;
21810;SDS011;11067;48.788;9.208;2022-09-12T13:10:02;1.23;;;0.90;;
21810;SDS011;11067;48.788;9.208;2022-09-12T13:12:31;1.80;;;1.23;;
21810;SDS011;11067;48.788;9.208;2022-09-12T13:15:01;1.15;;;1.05;;
21810;SDS011;11067;48.788;9.208;2022-09-12T13:17:31;2.63;;;1.10;;
21810;SDS011;11067;48.788;9.208;2022-09-12T13:20:15;1.70;;;1.40;;
21810;SDS011;11067;48.788;9.208;2022-09-12T13:22:50;2.72;;;1.50;;
21810;SDS011;11067;48.788;9.208;2022-09-12T13:25:30;2.25;;;1.13;;
21810;SDS011;11067;48.788;9.208;2022-09-12T13:27:59;1.20;;;1.10;;
21810;SDS011;11067;48.788;9.208;2022-09-12T13:30:24;1.52;;;1.40;;
21810;SDS011;11067;48.788;9.208;2022-09-12T13:32:56;1.93;;;1.50;;
21810;SDS011;11067;48.788;9.208;2022-09-12T13:38:09;1.40;;;1.23;;
21810;SDS011;11067;48.788;9.208;2022-09-12T13:41:06;2.47;;;1.20;;
21810;SDS011;11067;48.788;9.208;2022-09-12T13:43:44;1.50;;;1.30;;
21810;SDS011;11067;48.788;9.208;2022-09-12T13:46:20;1.77;;;1.30;;
21810;SDS011;11067;48.788;9.208;2022-09-12T13:48:55;1.92;;;1.40;;
21810;SDS011;11067;48.788;9.208;2022-09-12T13:51:27;1.40;;;1.25;;
21810;SDS011;11067;48.788;9.208;2022-09-12T13:53:56;2.50;;;1.30;;
21810;SDS011;11067;48.788;9.208;2022-09-12T13:56:26;2.85;;;1.30;;
21810;SDS011;11067;48.788;9.208;2022-09-12T13:58:53;2.50;;;1.30;;
21810;SDS011;11067;48.788;9.208;2022-09-12T14:01:22;3.63;;;1.33;;
21810;SDS011;11067;48.788;9.208;2022-09-12T14:07:18;3.03;;;1.40;;
21810;SDS011;11067;48.788;9.208;2022-09-12T14:09:54;1.83;;;1.27;;
21810;SDS011;11067;48.788;9.208;2022-09-12T14:12:31;2.57;;;1.00;;
21810;SDS011;11067;48.788;9.208;2022-09-12T14:15:01;1.85;;;1.23;;
21810;SDS011;11067;48.788;9.208;2022-09-12T14:17:30;0.85;;;0.82;;
21810;SDS011;11067;48.788;9.208;2022-09-12T14:20:07;1.03;;;0.93;;
21810;SDS011;11067;48.788;9.208;2022-09-12T14:22:37;1.50;;;0.75;;
21810;SDS011;11067;48.788;9.208;2022-09-12T14:25:05;1.55;;;1.13;;
21810;SDS011;11067;48.788;9.208;2022-09-12T14:27:39;1.88;;;1.10;;
21810;SDS011;11067;48.788;9.208;2022-09-12T14:35:33;1.40;;;1.00;;
21810;SDS011;11067;48.788;9.208;2022-09-12T14:38:07;2.63;;;1.02;;
21810;SDS011;11067;48.788;9.208;2022-09-12T14:40:44;1.75;;;1.00;;
21810;SDS011;11067;48.788;9.208;2022-09-12T14:43:31;1.20;;;1.10;;
21810;SDS011;11067;48.788;9.208;2022-09-12T14:46:00;2.60;;;1.10;;
21810;SDS011;11067;48.788;9.208;2022-09-12T14:48:33;1.67;;;1.15;;
21810;SDS011;11067;48.788;9.208;2022-09-12T14:51:01;1.75;;;1.20;;
21810;SDS011;11067;48.788;9.208;2022-09-12T14:53:32;1.20;;;1.10;;
21810;SDS011;11067;48.788;9.208;2022-09-12T14:58:35;2.70;;;1.13;;
21810;SDS011;11067;48.788;9.208;2022-09-12T15:01:02;1.85;;;1.02;;
21810;SDS011;11067;48.788;9.208;2022-09-12T15:06:33;1.53;;;1.20;;
21810;SDS011;11067;48.788;9.208;2022-09-12T15:09:02;1.70;;;1.30;;
21810;SDS011;11067;48.788;9.208;2022-09-12T15:11:31;1.20;;;1.00;;
21810;SDS011;11067;48.788;9.208;2022-09-12T15:13:57;1.20;;;1.10;;
21810;SDS011;11067;48.788;9.208;2022-09-12T15:16:30;2.53;;;1.20;;
21810;SDS011;11067;48.788;9.208;2022-09-12T15:18:55;1.30;;;1.20;;
21810;SDS011;11067;48.788;9.208;2022-09-12T15:21:21;1.95;;;1.10;;
21810;SDS011;11067;48.788;9.208;2022-09-12T15:23:50;1.60;;;1.50;;
21810;SDS011;11067;48.788;9.208;2022-09-12T15:26:22;1.42;;;1.10;;
21810;SDS011;11067;48.788;9.208;2022-09-12T15:28:51;1.30;;;1.20;;
21810;SDS011;11067;48.788;9.208;2022-09-12T15:31:27;1.15;;;1.05;;
21810;SDS011;11067;48.788;9.208;2022-09-12T15:33:54;1.17;;;1.08;;
21810;SDS011;11067;48.788;9.208;2022-09-12T15:36:21;1.48;;;1.15;;
21810;SDS011;11067;48.788;9.208;2022-09-12T15:38:48;1.50;;;1.40;;
21810;SDS011;11067;48.788;9.208;2022-09-12T15:41:18;1.55;;;1.38;;
21810;SDS011;11067;48.788;9.208;2022-09-12T15:43:46;1.65;;;1.50;;
21810;SDS011;11067;48.788;9.208;2022-09-12T15:46:12;3.85;;;1.40;;
21810;SDS011;11067;48.788;9.208;2022-09-12T15:48:38;1.48;;;1.33;;
21810;SDS011;11067;48.788;9.208;2022-09-12T15:51:14;1.50;;;1.40;;
21810;SDS011;11067;48.788;9.208;2022-09-12T15:53:41;1.67;;;1.40;;
21810;SDS011;11067;48.788;9.208;2022-09-12T15:56:08;2.10;;;1.30;;
21810;SDS011;11067;48.788;9.208;2022-09-12T15:58:33;1.33;;;1.23;;
21810;SDS011;11067;48.788;9.208;2022-09-12T16:00:59;2.78;;;1.55;;
21810;SDS011;11067;48.788;9.208;2022-09-12T16:03:26;2.17;;;1.30;;
21810;SDS011;11067;48.788;9.208;2022-09-12T16:05:54;1.33;;;1.23;;
21810;SDS011;11067;48.788;9.208;2022-09-12T16:08:21;2.35;;;1.30;;
21810;SDS011;11067;48.788;9.208;2022-09-12T16:10:48;2.67;;;1.40;;
21810;SDS011;11067;48.788;9.208;2022-09-12T16:13:17;1.60;;;1.33;;
21810;SDS011;11067;48.788;9.208;2022-09-12T16:15:42;1.50;;;1.30;;
21810;SDS011;11067;48.788;9.208;2022-09-12T16:18:08;1.90;;;1.30;;
21810;SDS011;11067;48.788;9.208;2022-09-12T16:20:33;1.88;;;1.27;;
21810;SDS011;11067;48.788;9.208;2022-09-12T16:22:59;1.77;;;1.43;;
21810;SDS011;11067;48.788;9.208;2022-09-12T16:25:24;1.70;;;1.47;;
21810;SDS011;11067;48.788;9.208;2022-09-12T16:27:50;1.55;;;1.40;;
21810;SDS011;11067;48.788;9.208;2022-09-12T16:30:15;1.43;;;1.33;;
21810;SDS011;11067;48.788;9.208;2022-09-12T16:32:41;2.50;;;1.27;;
21810;SDS011;11067;48.788;9.208;2022-09-12T16:35:07;2.37;;;1.40;;
21810;SDS011;11067;48.788;9.208;2022-09-12T16:37:33;2.13;;;1.30;;
21810;SDS011;11067;48.788;9.208;2022-09-12T16:39:59;1.63;;;1.50;;
21810;SDS011;11067;48.788;9.208;2022-09-12T16:42:25;1.42;;;1.30;;
21810;SDS011;11067;48.788;9.208;2022-09-12T16:44:51;1.57;;;1.40;;
21810;SDS011;11067;48.788;9.208;2022-09-12T16:47:16;5.20;;;2.50;;
21810;SDS011;11067;48.788;9.208;2022-09-12T16:49:42;4.60;;;2.05;;
21810;SDS011;11067;48.788;9.208;2022-09-12T16:52:07;3.53;;;2.17;;
21810;SDS011;11067;48.788;9.208;2022-09-12T16:54:34;7.13;;;4.20;;
21810;SDS011;11067;48.788;9.208;2022-09-12T16:57:00;5.03;;;3.17;;
21810;SDS011;11067;48.788;9.208;2022-09-12T16:59:26;3.47;;;2.33;;
21810;SDS011;11067;48.788;9.208;2022-09-12T17:01:52;3.57;;;1.90;;